createdAt,value
2023-02-22T00:00:46.214Z,40.26
2023-02-22T00:01:46.192Z,39.57
2023-02-22T00:04:48.477Z,38.24
2023-02-22T00:05:48.413Z,39.82
2023-02-22T00:07:05.555Z,39.62
2023-02-22T00:07:48.387Z,39.21
2023-02-22T00:08:48.369Z,39.68
2023-02-22T00:09:48.356Z,39.60
2023-02-22T00:10:48.374Z,39.50
2023-02-22T00:11:48.336Z,40.38
2023-02-22T00:12:48.321Z,41.29
2023-02-22T00:13:48.313Z,41.31
2023-02-22T00:14:48.310Z,40.31
2023-02-22T00:15:48.315Z,40.08
2023-02-22T00:16:48.297Z,40.96
2023-02-22T00:17:48.272Z,41.51
2023-02-22T00:18:48.253Z,42.70
2023-02-22T00:19:48.254Z,42.27
2023-02-22T00:20:48.255Z,41.50
2023-02-22T00:21:48.229Z,41.99
2023-02-22T00:22:48.215Z,42.79
2023-02-22T00:23:48.216Z,41.81
2023-02-22T00:24:48.196Z,41.07
2023-02-22T00:25:48.205Z,41.13
2023-02-22T00:26:48.184Z,40.99
2023-02-22T00:27:48.176Z,41.57
2023-02-22T00:28:48.157Z,41.20
2023-02-22T00:29:48.147Z,41.27
2023-02-22T00:30:48.145Z,41.88
2023-02-22T00:31:48.281Z,41.94
2023-02-22T00:32:48.119Z,42.92
2023-02-22T00:33:48.110Z,41.52
2023-02-22T00:34:48.092Z,40.27
2023-02-22T00:35:48.141Z,41.10
2023-02-22T00:36:48.067Z,43.60
2023-02-22T00:37:48.061Z,44.61
2023-02-22T00:38:48.051Z,43.86
2023-02-22T00:39:48.039Z,42.02
2023-02-22T00:40:48.041Z,42.72
2023-02-22T00:41:48.146Z,42.78
2023-02-22T00:42:48.014Z,42.27
2023-02-22T00:43:48.012Z,41.83
2023-02-22T00:44:47.989Z,42.41
2023-02-22T00:45:48.048Z,42.39
2023-02-22T00:46:47.969Z,43.42
2023-02-22T00:47:47.967Z,43.04
2023-02-22T00:48:47.946Z,42.69
2023-02-22T00:49:47.947Z,43.73
2023-02-22T00:50:47.940Z,42.89
2023-02-22T00:51:47.918Z,41.27
2023-02-22T00:52:47.920Z,42.97
2023-02-22T00:53:47.892Z,47.21
2023-02-22T00:54:47.889Z,45.23
2023-02-22T00:55:47.894Z,44.55
2023-02-22T00:56:47.866Z,43.00
2023-02-22T00:57:47.858Z,42.48
2023-02-22T00:58:47.844Z,39.72
2023-02-22T00:59:47.838Z,41.46
2023-02-22T01:00:47.853Z,43.00
2023-02-22T01:01:47.818Z,43.02
2023-02-22T01:02:47.795Z,41.48
2023-02-22T01:03:47.794Z,43.51
2023-02-22T01:04:47.768Z,43.52
2023-02-22T01:05:47.778Z,44.38
2023-02-22T01:06:47.751Z,43.47
2023-02-22T01:07:47.740Z,43.02
2023-02-22T01:08:47.730Z,41.89
2023-02-22T01:09:47.718Z,40.33
2023-02-22T01:10:47.731Z,41.83
2023-02-22T01:11:47.712Z,43.19
2023-02-22T01:12:47.692Z,42.78
2023-02-22T01:13:47.692Z,43.22
2023-02-22T01:14:47.666Z,44.23
2023-02-22T01:15:47.682Z,42.90
2023-02-22T01:16:47.712Z,43.75
2023-02-22T01:17:47.665Z,41.95
2023-02-22T01:18:47.629Z,39.65
2023-02-22T01:19:47.618Z,40.66
2023-02-22T01:20:47.617Z,40.37
2023-02-22T01:21:47.595Z,39.71
2023-02-22T01:22:47.586Z,41.31
2023-02-22T01:23:47.578Z,40.19
2023-02-22T01:24:47.610Z,39.60
2023-02-22T01:25:47.603Z,39.40
2023-02-22T01:26:47.536Z,42.70
2023-02-22T01:27:47.529Z,40.09
2023-02-22T01:28:47.519Z,40.76
2023-02-22T01:29:47.517Z,40.25
2023-02-22T01:30:47.611Z,40.19
2023-02-22T01:31:47.539Z,42.13
2023-02-22T01:32:47.471Z,40.42
2023-02-22T01:33:47.477Z,41.08
2023-02-22T01:34:47.464Z,40.09
2023-02-22T01:35:47.453Z,41.96
2023-02-22T01:36:47.449Z,41.17
2023-02-22T01:37:47.422Z,42.47
2023-02-22T01:38:47.411Z,41.96
2023-02-22T01:39:47.422Z,41.87
2023-02-22T01:40:47.392Z,40.95
2023-02-22T01:41:47.409Z,40.71
2023-02-22T01:42:47.368Z,41.52
2023-02-22T01:43:47.376Z,40.46
2023-02-22T01:44:47.357Z,40.98
2023-02-22T01:45:47.374Z,40.05
2023-02-22T01:46:47.356Z,39.05
2023-02-22T01:47:47.321Z,39.10
2023-02-22T01:48:47.307Z,39.74
2023-02-22T01:49:47.303Z,43.89
2023-02-22T01:50:47.281Z,40.70
2023-02-22T01:51:47.292Z,40.66
2023-02-22T01:52:47.292Z,39.92
2023-02-22T01:53:47.252Z,40.78
2023-02-22T01:54:47.243Z,39.43
2023-02-22T01:55:47.233Z,40.00
2023-02-22T01:56:47.229Z,40.03
2023-02-22T01:57:47.227Z,39.77
2023-02-22T01:58:47.202Z,46.29
2023-02-22T01:59:47.200Z,40.86
2023-02-22T02:00:47.175Z,40.09
2023-02-22T02:01:47.179Z,39.88
2023-02-22T02:02:47.156Z,39.58
2023-02-22T02:03:47.170Z,39.48
2023-02-22T02:04:47.181Z,40.03
2023-02-22T02:05:47.124Z,39.48
2023-02-22T02:06:47.141Z,39.92
2023-02-22T02:07:47.106Z,39.53
2023-02-22T02:08:47.087Z,38.56
2023-02-22T02:09:47.083Z,38.52
2023-02-22T02:10:47.063Z,39.03
2023-02-22T02:11:47.069Z,39.55
2023-02-22T02:12:47.106Z,40.06
2023-02-22T02:13:47.052Z,40.34
2023-02-22T02:14:47.034Z,40.18
2023-02-22T02:15:47.030Z,40.79
2023-02-22T02:16:47.077Z,40.18
2023-02-22T02:17:47.005Z,39.95
2023-02-22T02:18:46.993Z,44.29
2023-02-22T02:19:46.980Z,41.30
2023-02-22T02:20:46.975Z,40.34
2023-02-22T02:21:46.987Z,40.79
2023-02-22T02:22:46.949Z,41.06
2023-02-22T02:23:46.944Z,41.91
2023-02-22T02:24:46.937Z,40.64
2023-02-22T02:25:46.918Z,39.59
2023-02-22T02:26:46.919Z,39.47
2023-02-22T02:27:46.896Z,40.77
2023-02-22T02:28:46.885Z,40.84
2023-02-22T02:29:46.886Z,41.46
2023-02-22T02:30:46.878Z,39.95
2023-02-22T02:31:46.942Z,38.87
2023-02-22T02:32:46.857Z,40.54
2023-02-22T02:33:46.832Z,40.50
2023-02-22T02:34:46.822Z,43.31
2023-02-22T02:35:46.833Z,46.16
2023-02-22T02:36:46.813Z,41.43
2023-02-22T02:40:12.941Z,40.31
2023-02-22T02:41:12.868Z,42.59
2023-02-22T02:42:12.896Z,44.31
2023-02-22T02:43:12.864Z,46.89
2023-02-22T02:44:15.046Z,43.89
2023-02-22T02:45:12.813Z,44.83
2023-02-22T02:46:12.811Z,42.05
2023-02-22T02:47:12.887Z,42.17
2023-02-22T02:48:12.789Z,41.54
2023-02-22T02:49:12.778Z,42.82
2023-02-22T02:50:12.767Z,41.85
2023-02-22T02:51:12.758Z,44.47
2023-02-22T02:52:12.765Z,41.26
2023-02-22T02:53:12.743Z,40.78
2023-02-22T02:54:12.726Z,39.95
2023-02-22T02:55:12.715Z,39.66
2023-02-22T02:56:12.710Z,40.08
2023-02-22T02:57:12.703Z,38.66
2023-02-22T02:58:12.676Z,39.02
2023-02-22T02:59:12.673Z,38.15
2023-02-22T03:00:12.657Z,43.72
2023-02-22T03:01:12.683Z,39.04
2023-02-22T03:02:12.648Z,40.05
2023-02-22T03:03:12.627Z,39.82
2023-02-22T03:04:12.616Z,38.54
2023-02-22T03:05:12.611Z,37.34
2023-02-22T03:06:12.599Z,37.62
2023-02-22T03:07:12.629Z,37.87
2023-02-22T03:08:12.576Z,40.06
2023-02-22T03:09:12.564Z,40.70
2023-02-22T03:10:12.554Z,45.11
2023-02-22T03:11:12.553Z,44.21
2023-02-22T03:12:12.550Z,43.92
2023-02-22T03:13:12.529Z,42.07
2023-02-22T03:14:12.524Z,43.43
2023-02-22T03:15:12.506Z,39.46
2023-02-22T03:16:12.518Z,40.38
2023-02-22T03:17:12.504Z,39.90
2023-02-22T03:18:12.500Z,41.26
2023-02-22T03:19:12.461Z,40.87
2023-02-22T03:20:12.456Z,42.98
2023-02-22T03:21:12.438Z,42.42
2023-02-22T03:22:12.430Z,40.34
2023-02-22T03:23:12.433Z,40.55
2023-02-22T03:24:12.403Z,40.34
2023-02-22T03:25:12.409Z,41.66
2023-02-22T03:26:12.391Z,43.03
2023-02-22T03:27:12.374Z,40.59
2023-02-22T03:28:12.376Z,42.46
2023-02-22T03:29:12.406Z,41.85
2023-02-22T03:30:12.425Z,41.03
2023-02-22T03:31:12.378Z,40.02
2023-02-22T03:32:12.325Z,41.65
2023-02-22T03:33:12.322Z,41.88
2023-02-22T03:34:12.305Z,42.49
2023-02-22T03:35:12.293Z,45.54
2023-02-22T03:36:12.293Z,42.15
2023-02-22T03:37:12.270Z,42.44
2023-02-22T03:38:12.277Z,43.41
2023-02-22T03:39:12.260Z,43.62
2023-02-22T03:40:12.250Z,44.98
2023-02-22T03:41:12.240Z,42.26
2023-02-22T03:42:12.217Z,42.61
2023-02-22T03:43:12.249Z,43.22
2023-02-22T03:44:12.206Z,43.81
2023-02-22T03:45:12.206Z,45.95
2023-02-22T03:46:12.206Z,41.71
2023-02-22T03:47:12.175Z,40.46
2023-02-22T03:48:12.167Z,41.60
2023-02-22T03:49:12.147Z,42.40
2023-02-22T03:50:12.138Z,42.27
2023-02-22T03:51:12.132Z,41.79
2023-02-22T03:52:12.132Z,43.83
2023-02-22T03:53:12.131Z,42.83
2023-02-22T03:54:12.095Z,46.78
2023-02-22T03:55:12.097Z,48.63
2023-02-22T03:56:12.080Z,42.54
2023-02-22T03:57:12.068Z,42.15
2023-02-22T03:58:12.066Z,41.64
2023-02-22T03:59:12.055Z,40.68
2023-02-22T04:00:12.050Z,39.45
2023-02-22T04:01:13.236Z,41.24
2023-02-22T04:02:13.216Z,42.34
2023-02-22T04:03:13.248Z,46.57
2023-02-22T04:04:13.237Z,44.85
2023-02-22T04:05:13.183Z,43.03
2023-02-22T04:06:13.173Z,43.66
2023-02-22T04:07:13.150Z,40.21
2023-02-22T04:08:13.148Z,41.18
2023-02-22T04:09:13.163Z,41.01
2023-02-22T04:10:13.127Z,40.75
2023-02-22T04:11:13.158Z,44.71
2023-02-22T04:12:13.118Z,44.72
2023-02-22T04:13:13.093Z,44.14
2023-02-22T04:14:13.054Z,44.43
2023-02-22T04:15:13.094Z,43.69
2023-02-22T04:16:13.085Z,49.56
2023-02-22T04:17:13.061Z,40.59
2023-02-22T04:18:13.067Z,49.26
2023-02-22T04:19:13.072Z,43.50
2023-02-22T04:20:13.028Z,48.41
2023-02-22T04:21:13.019Z,44.05
2023-02-22T04:22:13.017Z,45.63
2023-02-22T04:23:13.020Z,50.33
2023-02-22T04:24:13.002Z,50.03
2023-02-22T04:25:12.981Z,45.46
2023-02-22T04:26:12.961Z,43.93
2023-02-22T04:27:12.963Z,40.22
2023-02-22T04:28:12.951Z,39.32
2023-02-22T04:29:12.947Z,44.40
2023-02-22T04:30:12.977Z,40.19
2023-02-22T04:31:12.966Z,39.82
2023-02-22T04:32:13.013Z,43.11
2023-02-22T04:33:12.982Z,41.78
2023-02-22T04:34:12.874Z,41.82
2023-02-22T04:35:12.874Z,52.39
2023-02-22T04:36:12.861Z,44.70
2023-02-22T04:37:12.856Z,50.20
2023-02-22T04:38:12.826Z,42.34
2023-02-22T04:39:12.828Z,47.79
2023-02-22T04:40:12.843Z,51.08
2023-02-22T04:41:12.803Z,45.60
2023-02-22T04:42:12.808Z,50.61
2023-02-22T04:43:12.802Z,44.48
2023-02-22T04:44:12.797Z,47.75
2023-02-22T04:45:12.795Z,42.76
2023-02-22T04:46:12.790Z,49.88
2023-02-22T04:47:12.789Z,47.16
2023-02-22T04:48:12.777Z,47.85
2023-02-22T04:49:12.744Z,47.20
2023-02-22T04:50:12.722Z,47.01
2023-02-22T04:51:12.713Z,45.94
2023-02-22T04:52:12.692Z,46.87
2023-02-22T04:53:12.693Z,46.42
2023-02-22T04:54:12.720Z,41.92
2023-02-22T04:55:12.688Z,45.55
2023-02-22T04:56:12.675Z,43.89
2023-02-22T04:57:12.658Z,43.11
2023-02-22T04:58:12.666Z,46.36
2023-02-22T04:59:12.676Z,48.48
2023-02-22T05:00:12.665Z,48.62
2023-02-22T05:01:12.642Z,49.49
2023-02-22T05:02:12.637Z,48.52
2023-02-22T05:03:12.612Z,43.25
2023-02-22T05:04:12.606Z,46.34
2023-02-22T05:05:12.580Z,50.18
2023-02-22T05:06:12.592Z,48.87
2023-02-22T05:07:12.572Z,50.72
2023-02-22T05:08:12.555Z,49.49
2023-02-22T05:09:12.570Z,43.38
2023-02-22T05:10:12.527Z,43.00
2023-02-22T05:11:12.533Z,41.78
2023-02-22T05:12:12.504Z,42.92
2023-02-22T05:13:12.495Z,46.39
2023-02-22T05:14:12.491Z,50.94
2023-02-22T05:15:12.502Z,45.12
2023-02-22T05:16:12.546Z,46.38
2023-02-22T05:17:12.471Z,46.67
2023-02-22T05:18:12.489Z,52.58
2023-02-22T05:19:12.465Z,56.27
2023-02-22T05:20:12.439Z,45.90
2023-02-22T05:21:12.443Z,43.86
2023-02-22T05:22:12.413Z,45.63
2023-02-22T05:23:12.431Z,47.51
2023-02-22T05:24:12.489Z,49.64
2023-02-22T05:25:12.386Z,49.01
2023-02-22T05:26:12.372Z,49.03
2023-02-22T05:27:12.366Z,48.88
2023-02-22T05:28:12.375Z,46.11
2023-02-22T05:29:12.369Z,48.55
2023-02-22T05:30:12.436Z,46.93
2023-02-22T05:31:12.346Z,48.80
2023-02-22T05:32:12.414Z,48.37
2023-02-22T05:33:12.330Z,49.78
2023-02-22T05:34:12.330Z,47.18
2023-02-22T05:35:12.317Z,50.07
2023-02-22T05:36:12.259Z,51.79
2023-02-22T05:37:12.296Z,50.84
2023-02-22T05:38:12.286Z,54.37
2023-02-22T05:39:12.355Z,46.34
2023-02-22T05:40:12.250Z,51.25
2023-02-22T05:41:12.267Z,50.76
2023-02-22T05:42:12.229Z,46.73
2023-02-22T05:43:12.240Z,49.39
2023-02-22T05:44:12.247Z,50.26
2023-02-22T05:45:12.238Z,49.17
2023-02-22T05:46:12.155Z,48.99
2023-02-22T05:47:12.184Z,51.55
2023-02-22T05:48:12.169Z,48.63
2023-02-22T05:49:12.224Z,51.41
2023-02-22T05:50:12.206Z,50.71
2023-02-22T05:51:12.233Z,48.43
2023-02-22T05:52:12.149Z,50.92
2023-02-22T05:53:12.141Z,54.81
2023-02-22T05:54:12.130Z,48.00
2023-02-22T05:55:12.115Z,50.70
2023-02-22T05:56:12.101Z,51.73
2023-02-22T05:57:12.109Z,47.83
2023-02-22T05:58:12.091Z,47.71
2023-02-22T05:59:12.110Z,51.41
2023-02-22T06:00:12.141Z,48.40
2023-02-22T06:01:12.025Z,51.76
2023-02-22T06:02:13.074Z,53.71
2023-02-22T06:03:12.021Z,51.95
2023-02-22T06:04:12.016Z,44.79
2023-02-22T06:05:12.091Z,48.57
2023-02-22T06:06:11.994Z,52.69
2023-02-22T06:07:11.986Z,47.42
2023-02-22T06:08:11.964Z,48.69
2023-02-22T06:09:11.970Z,55.65
2023-02-22T06:10:11.969Z,48.15
2023-02-22T06:11:11.941Z,46.88
2023-02-22T06:12:11.983Z,49.44
2023-02-22T06:13:12.467Z,52.25
2023-02-22T06:14:11.955Z,50.02
2023-02-22T06:15:11.921Z,52.67
2023-02-22T06:16:11.909Z,48.85
2023-02-22T06:17:11.893Z,52.66
2023-02-22T06:18:11.879Z,51.11
2023-02-22T06:19:11.873Z,53.14
2023-02-22T06:20:11.904Z,54.60
2023-02-22T06:21:11.864Z,49.36
2023-02-22T06:22:11.859Z,51.96
2023-02-22T06:23:11.882Z,54.19
2023-02-22T06:26:13.552Z,47.75
2023-02-22T06:26:17.916Z,0.00
2023-02-22T06:27:15.114Z,51.16
2023-02-22T06:28:15.709Z,52.31
2023-02-22T06:29:48.986Z,47.27
2023-02-22T06:30:15.112Z,60.49
2023-02-22T06:31:15.259Z,54.94
2023-02-22T06:32:16.095Z,42.92
2023-02-22T06:33:15.008Z,54.14
2023-02-22T06:34:14.994Z,47.92
2023-02-22T06:35:15.001Z,53.57
2023-02-22T06:36:14.982Z,54.42
2023-02-22T06:37:14.957Z,53.02
2023-02-22T06:38:14.938Z,55.13
2023-02-22T06:39:14.944Z,51.35
2023-02-22T06:40:14.940Z,54.75
2023-02-22T06:41:15.285Z,50.37
2023-02-22T06:42:14.959Z,52.35
2023-02-22T06:43:14.945Z,54.63
2023-02-22T06:44:14.872Z,52.78
2023-02-22T06:45:14.869Z,51.62
2023-02-22T06:46:14.860Z,46.48
2023-02-22T06:47:14.858Z,50.36
2023-02-22T06:48:14.856Z,52.85
2023-02-22T06:49:14.869Z,51.11
2023-02-22T06:50:14.838Z,47.48
2023-02-22T06:51:15.179Z,51.99
2023-02-22T06:52:14.844Z,52.84
2023-02-22T06:53:14.839Z,49.23
2023-02-22T06:54:14.819Z,53.79
2023-02-22T06:55:14.828Z,49.71
2023-02-22T06:56:14.786Z,53.56
2023-02-22T06:57:14.783Z,58.87
2023-02-22T06:58:14.752Z,55.18
2023-02-22T06:59:14.777Z,53.35
2023-02-22T07:00:14.761Z,45.29
2023-02-22T07:01:15.074Z,54.57
2023-02-22T07:02:14.750Z,55.05
2023-02-22T07:03:14.772Z,43.84
2023-02-22T07:04:14.713Z,51.73
2023-02-22T07:05:14.696Z,54.53
2023-02-22T07:06:14.727Z,51.75
2023-02-22T07:07:14.690Z,49.50
2023-02-22T07:08:14.652Z,50.42
2023-02-22T07:09:14.647Z,50.85
2023-02-22T07:10:14.653Z,51.70
2023-02-22T07:11:15.217Z,52.36
2023-02-22T07:12:14.756Z,50.32
2023-02-22T07:13:15.127Z,55.43
2023-02-22T07:14:14.627Z,49.95
2023-02-22T07:15:14.657Z,51.36
2023-02-22T07:16:14.711Z,52.90
2023-02-22T07:17:14.666Z,56.05
2023-02-22T07:18:14.596Z,55.25
2023-02-22T07:19:14.585Z,51.48
2023-02-22T07:20:14.572Z,50.94
2023-02-22T07:21:14.810Z,59.27
2023-02-22T07:22:14.568Z,53.09
2023-02-22T07:23:14.578Z,56.20
2023-02-22T07:24:15.256Z,53.90
2023-02-22T07:25:14.455Z,48.95
2023-02-22T07:26:14.522Z,45.63
2023-02-22T07:27:14.540Z,44.17
2023-02-22T07:28:14.473Z,49.13
2023-02-22T07:29:14.523Z,46.73
2023-02-22T07:30:14.646Z,44.10
2023-02-22T07:31:14.930Z,47.62
2023-02-22T07:32:14.606Z,52.91
2023-02-22T07:33:14.563Z,49.99
2023-02-22T07:34:14.468Z,53.31
2023-02-22T07:35:14.440Z,56.61
2023-02-22T07:36:14.476Z,50.20
2023-02-22T07:37:14.405Z,49.81
2023-02-22T07:38:14.527Z,51.65
2023-02-22T07:39:14.358Z,51.72
2023-02-22T07:40:14.350Z,45.86
2023-02-22T07:41:14.579Z,47.69
2023-02-22T07:42:14.413Z,51.10
2023-02-22T07:43:14.376Z,54.79
2023-02-22T07:44:14.413Z,49.27
2023-02-22T07:45:14.365Z,47.61
2023-02-22T07:46:14.353Z,47.82
2023-02-22T07:47:14.375Z,53.58
2023-02-22T07:48:16.861Z,51.57
2023-02-22T07:49:14.382Z,43.34
2023-02-22T07:50:14.436Z,57.08
2023-02-22T07:51:14.590Z,49.50
2023-02-22T07:52:14.335Z,47.94
2023-02-22T07:53:14.267Z,53.22
2023-02-22T07:54:14.317Z,52.80
2023-02-22T07:55:14.368Z,48.42
2023-02-22T07:56:14.576Z,52.38
2023-02-22T07:57:14.280Z,49.59
2023-02-22T07:58:14.516Z,47.17
2023-02-22T07:59:14.444Z,50.64
2023-02-22T08:00:14.248Z,41.84
2023-02-22T08:01:14.265Z,42.94
2023-02-22T08:02:16.888Z,50.32
2023-02-22T08:03:14.249Z,46.90
2023-02-22T08:04:14.342Z,45.37
2023-02-22T08:05:14.204Z,46.17
2023-02-22T08:06:14.278Z,48.09
2023-02-22T08:07:14.097Z,51.60
2023-02-22T08:08:14.068Z,49.78
2023-02-22T08:09:14.675Z,55.71
2023-02-22T08:10:14.650Z,47.13
2023-02-22T08:11:14.108Z,52.91
2023-02-22T08:12:14.197Z,48.97
2023-02-22T08:13:14.019Z,46.41
2023-02-22T08:14:14.274Z,45.59
2023-02-22T08:15:14.076Z,46.61
2023-02-22T08:16:17.653Z,53.03
2023-02-22T08:17:14.888Z,48.60
2023-02-22T08:18:14.505Z,53.78
2023-02-22T08:19:14.205Z,55.24
2023-02-22T08:20:14.127Z,48.64
2023-02-22T08:21:14.036Z,53.23
2023-02-22T08:22:14.041Z,50.93
2023-02-22T08:23:14.048Z,49.54
2023-02-22T08:24:14.027Z,50.54
2023-02-22T08:25:13.969Z,51.95
2023-02-22T08:26:14.013Z,48.88
2023-02-22T08:27:14.080Z,51.19
2023-02-22T08:28:13.940Z,51.69
2023-02-22T08:29:13.925Z,51.53
2023-02-22T08:30:13.988Z,49.67
2023-02-22T08:31:14.000Z,47.25
2023-02-22T08:32:14.005Z,49.48
2023-02-22T08:33:13.883Z,51.65
2023-02-22T08:34:13.970Z,47.63
2023-02-22T08:35:13.800Z,55.34
2023-02-22T08:36:13.808Z,47.74
2023-02-22T08:37:13.788Z,43.97
2023-02-22T08:38:15.282Z,45.30
2023-02-22T08:39:41.080Z,50.74
2023-02-22T08:40:19.349Z,53.12
2023-02-22T08:50:05.322Z,48.98
2023-02-22T09:25:19.886Z,45.45
2023-02-22T09:26:18.692Z,48.52
2023-02-22T09:28:20.008Z,52.92
2023-02-22T09:29:18.660Z,53.56
2023-02-22T09:30:18.689Z,50.20
2023-02-22T09:31:19.122Z,52.45
2023-02-22T09:32:18.915Z,50.63
2023-02-22T09:33:18.623Z,52.64
2023-02-22T09:34:18.617Z,50.75
2023-02-22T09:35:18.627Z,52.46
2023-02-22T09:36:18.949Z,55.07
2023-02-22T09:37:18.592Z,49.59
2023-02-22T09:38:18.584Z,51.22
2023-02-22T09:39:18.579Z,51.72
2023-02-22T09:40:18.668Z,49.85
2023-02-22T09:41:18.727Z,50.50
2023-02-22T09:42:18.534Z,51.61
2023-02-22T09:43:18.511Z,51.06
2023-02-22T09:44:18.543Z,49.85
2023-02-22T09:45:18.498Z,52.29
2023-02-22T09:46:19.052Z,47.95
2023-02-22T09:47:18.570Z,49.58
2023-02-22T09:48:22.159Z,53.77
2023-02-22T09:49:18.463Z,52.79
2023-02-22T09:50:18.460Z,50.80
2023-02-22T09:51:18.446Z,50.52
2023-02-22T09:52:18.444Z,51.61
2023-02-22T09:53:18.445Z,48.98
2023-02-22T09:54:18.394Z,54.52
2023-02-22T09:55:18.413Z,55.22
2023-02-22T09:56:19.113Z,48.21
2023-02-22T09:57:18.385Z,52.98
2023-02-22T09:58:18.353Z,46.15
2023-02-22T09:59:18.343Z,45.24
2023-02-22T10:00:18.334Z,45.57
2023-02-22T10:01:18.339Z,53.09
2023-02-22T10:02:18.333Z,49.08
2023-02-22T10:03:21.003Z,50.08
2023-02-22T10:04:18.316Z,47.45
2023-02-22T10:05:18.320Z,49.79
2023-02-22T10:06:18.627Z,51.92
2023-02-22T10:07:18.298Z,51.88
2023-02-22T10:08:18.277Z,51.00
2023-02-22T10:09:18.237Z,50.64
2023-02-22T10:10:18.299Z,50.21
2023-02-22T10:11:18.235Z,50.05
2023-02-22T10:12:18.238Z,50.38
2023-02-22T10:13:18.212Z,50.10
2023-02-22T10:14:18.236Z,48.40
2023-02-22T10:15:18.216Z,48.59
2023-02-22T10:16:18.542Z,46.86
2023-02-22T10:17:18.168Z,50.52
2023-02-22T10:18:18.158Z,48.37
2023-02-22T10:19:18.130Z,53.07
2023-02-22T10:20:18.154Z,50.24
2023-02-22T10:21:18.156Z,47.10
2023-02-22T10:22:18.111Z,46.64
2023-02-22T10:23:18.103Z,46.37
2023-02-22T10:24:18.095Z,47.30
2023-02-22T10:25:18.166Z,45.56
2023-02-22T10:26:18.346Z,49.47
2023-02-22T10:27:18.049Z,51.70
2023-02-22T10:28:18.056Z,43.95
2023-02-22T10:29:18.026Z,44.58
2023-02-22T10:30:24.547Z,44.60
2023-02-22T10:31:19.207Z,51.51
2023-02-22T10:32:18.105Z,50.69
2023-02-22T10:33:18.006Z,51.59
2023-02-22T10:34:17.985Z,50.37
2023-02-22T10:35:17.976Z,53.77
2023-02-22T10:36:18.238Z,48.35
2023-02-22T10:37:17.985Z,47.01
2023-02-22T10:38:18.004Z,51.70
2023-02-22T10:39:17.979Z,56.72
2023-02-22T10:40:17.952Z,47.12
2023-02-22T10:41:17.913Z,50.46
2023-02-22T10:42:17.924Z,52.43
2023-02-22T10:43:17.947Z,46.99
2023-02-22T10:44:17.919Z,46.69
2023-02-22T10:45:17.867Z,48.52
2023-02-22T10:46:18.202Z,48.05
2023-02-22T10:47:18.538Z,44.46
2023-02-22T10:48:17.846Z,52.03
2023-02-22T10:49:17.850Z,46.61
2023-02-22T10:50:17.845Z,53.03
2023-02-22T10:51:17.795Z,47.22
2023-02-22T10:52:17.808Z,46.58
2023-02-22T10:53:17.792Z,53.12
2023-02-22T10:54:17.779Z,51.00
2023-02-22T10:55:17.764Z,51.56
2023-02-22T10:56:18.145Z,48.09
2023-02-22T10:57:17.733Z,48.39
2023-02-22T10:58:17.779Z,46.43
2023-02-22T11:20:40.713Z,53.82
2023-02-22T11:21:40.989Z,49.50
2023-02-22T11:25:06.589Z,49.57
2023-02-22T11:26:07.944Z,52.10
2023-02-22T11:29:37.498Z,53.62
2023-02-22T11:30:33.912Z,48.08
2023-02-22T11:31:33.732Z,54.88
2023-02-22T11:51:20.636Z,48.78
2023-02-22T11:52:20.396Z,49.39
2023-02-22T11:53:20.403Z,44.88
2023-02-22T11:54:20.377Z,41.61
2023-02-22T11:55:26.778Z,45.63
2023-02-22T11:56:35.744Z,52.77
2023-02-22T11:57:21.342Z,49.99
2023-02-22T11:58:20.323Z,51.21
2023-02-22T11:59:20.319Z,51.74
2023-02-22T12:00:20.300Z,47.28
2023-02-22T12:01:20.288Z,51.93
2023-02-22T12:02:20.283Z,52.62
2023-02-22T12:26:17.088Z,51.49
2023-02-22T12:27:16.549Z,45.63
2023-02-22T12:28:24.172Z,44.53
2023-02-22T12:29:17.453Z,47.17
2023-02-22T12:30:16.507Z,53.98
2023-02-22T12:31:16.702Z,51.77
2023-02-22T12:32:16.595Z,51.07
2023-02-22T12:33:16.397Z,41.27
2023-02-22T12:34:16.566Z,48.37
2023-02-22T12:35:16.399Z,50.70
2023-02-22T12:36:16.482Z,43.81
2023-02-22T12:37:16.461Z,46.19
2023-02-22T12:38:16.401Z,48.99
2023-02-22T12:39:16.362Z,51.90
2023-02-22T12:40:16.432Z,44.55
2023-02-22T12:41:16.741Z,44.80
2023-02-22T12:42:16.357Z,51.19
2023-02-22T12:43:16.340Z,44.99
2023-02-22T12:44:16.297Z,45.31
2023-02-22T12:45:16.364Z,50.48
2023-02-22T12:46:16.310Z,43.15
2023-02-22T12:47:16.267Z,46.02
2023-02-22T12:48:16.246Z,47.62
2023-02-22T12:49:16.239Z,46.79
2023-02-22T12:50:16.298Z,53.19
2023-02-22T12:51:16.540Z,44.11
2023-02-22T12:52:21.774Z,45.45
2023-02-22T12:53:17.201Z,50.12
2023-02-22T12:54:16.181Z,50.85
2023-02-22T12:55:16.282Z,47.16
2023-02-22T12:56:16.202Z,49.03
2023-02-22T12:57:16.220Z,51.86
2023-02-22T12:58:16.157Z,49.57
2023-02-22T12:59:16.154Z,51.41
2023-02-22T13:00:16.164Z,51.17
2023-02-22T13:01:16.574Z,52.06
2023-02-22T13:02:16.101Z,54.11
2023-02-22T13:03:16.131Z,47.89
2023-02-22T13:04:20.982Z,51.99
2023-02-22T13:05:17.125Z,50.55
2023-02-22T13:06:16.130Z,49.13
2023-02-22T13:07:16.106Z,51.92
2023-02-22T13:08:16.079Z,56.59
2023-02-22T13:09:16.111Z,47.70
2023-02-22T13:10:16.048Z,55.28
2023-02-22T13:11:16.459Z,48.65
2023-02-22T13:12:16.037Z,51.19
2023-02-22T13:13:16.007Z,48.25
2023-02-22T13:14:15.992Z,51.68
2023-02-22T13:15:15.976Z,47.53
2023-02-22T13:16:16.129Z,46.42
2023-02-22T13:17:15.968Z,47.08
2023-02-22T13:18:16.003Z,50.13
2023-02-22T13:19:15.986Z,56.01
2023-02-22T13:20:15.989Z,47.17
2023-02-22T13:21:16.320Z,50.33
2023-02-22T13:22:15.970Z,48.03
2023-02-22T13:23:15.960Z,45.61
2023-02-22T13:24:15.947Z,48.37
2023-02-22T13:25:15.986Z,48.32
2023-02-22T13:26:15.904Z,49.72
2023-02-22T13:27:15.889Z,48.51
2023-02-22T13:28:15.975Z,54.85
2023-02-22T13:29:15.888Z,49.82
2023-02-22T13:30:15.870Z,49.84
2023-02-22T13:31:16.041Z,46.43
2023-02-22T13:32:15.833Z,44.17
2023-02-22T13:33:15.791Z,48.44
2023-02-22T13:34:16.063Z,50.03
2023-02-22T13:35:15.776Z,53.22
2023-02-22T13:36:16.065Z,56.05
2023-02-22T13:37:15.799Z,45.31
2023-02-22T13:38:15.806Z,53.44
2023-02-22T13:39:15.885Z,49.88
2023-02-22T13:40:15.721Z,51.46
2023-02-22T13:41:17.309Z,45.59
2023-02-22T13:42:16.893Z,49.24
2023-02-22T13:43:16.923Z,43.90
2023-02-22T13:44:17.106Z,47.42
2023-02-22T13:45:16.937Z,47.01
2023-02-22T13:46:17.200Z,46.14
2023-02-22T13:47:16.801Z,48.57
2023-02-22T13:48:16.978Z,45.97
2023-02-22T13:49:16.913Z,50.45
2023-02-22T13:50:19.647Z,50.03
2023-02-22T13:57:07.409Z,51.10
2023-02-22T13:58:07.329Z,50.19
2023-02-22T13:59:07.126Z,48.23
2023-02-22T14:00:07.025Z,50.78
2023-02-22T14:01:07.031Z,50.05
2023-02-22T14:02:06.995Z,48.42
2023-02-22T14:03:34.708Z,47.60
2023-02-22T14:04:07.052Z,45.75
2023-02-22T14:05:07.049Z,52.09
2023-02-22T14:06:07.040Z,51.83
2023-02-22T14:07:06.947Z,44.70
2023-02-22T14:08:06.943Z,49.00
2023-02-22T14:09:06.971Z,47.25
2023-02-22T14:10:07.029Z,48.07
2023-02-22T14:11:06.934Z,46.13
2023-02-22T14:12:06.894Z,48.09
2023-02-22T14:13:06.897Z,50.93
2023-02-22T14:14:06.882Z,42.81
2023-02-22T14:15:10.720Z,46.24
2023-02-22T14:16:07.950Z,46.56
2023-02-22T14:17:06.862Z,49.32
2023-02-22T14:18:06.936Z,48.81
2023-02-22T14:19:06.824Z,45.85
2023-02-22T14:20:06.842Z,49.55
2023-02-22T14:21:06.822Z,48.14
2023-02-22T14:22:06.808Z,48.38
2023-02-22T14:23:06.852Z,49.36
2023-02-22T14:24:06.833Z,54.44
2023-02-22T14:25:07.716Z,51.36
2023-02-22T14:26:06.790Z,48.68
2023-02-22T14:27:06.758Z,49.64
2023-02-22T14:28:06.760Z,50.44
2023-02-22T14:29:06.792Z,49.81
2023-02-22T14:30:26.251Z,52.21
2023-02-22T14:31:07.959Z,48.87
2023-02-22T14:36:16.711Z,44.71
2023-02-22T14:36:59.570Z,50.96
2023-02-22T14:37:50.859Z,54.62
2023-02-22T14:41:23.461Z,45.13
2023-02-22T14:42:23.633Z,52.69
2023-02-22T14:43:30.982Z,50.62
2023-02-22T14:44:23.412Z,47.83
2023-02-22T14:45:23.405Z,51.12
2023-02-22T14:46:23.395Z,48.61
2023-02-22T14:47:23.449Z,46.82
2023-02-22T14:48:23.364Z,50.30
2023-02-22T14:49:23.341Z,51.39
2023-02-22T14:50:23.331Z,53.86
2023-02-22T14:51:25.816Z,51.84
2023-02-22T14:52:23.290Z,53.70
2023-02-22T14:53:23.279Z,53.71
2023-02-22T14:54:23.276Z,52.49
2023-02-22T14:55:23.267Z,50.86
2023-02-22T14:56:23.283Z,50.04
2023-02-22T14:57:23.226Z,50.83
2023-02-22T14:58:23.222Z,52.66
2023-02-22T14:59:23.266Z,55.15
2023-02-22T15:00:23.214Z,51.03
2023-02-22T15:01:24.295Z,52.74
2023-02-22T15:02:23.222Z,51.55